sensor_id;sensor_type;location;lat;lon;timestamp;temperature;humidity
16955;DHT22;8594;52.052;8.354;2023-04-19T00:00:06;11.40;99.90
16955;DHT22;8594;52.052;8.354;2023-04-19T00:02:33;11.40;99.90
16955;DHT22;8594;52.052;8.354;2023-04-19T00:05:01;11.20;99.90
16955;DHT22;8594;52.052;8.354;2023-04-19T00:07:29;11.20;99.90
16955;DHT22;8594;52.052;8.354;2023-04-19T00:09:56;11.30;99.90
16955;DHT22;8594;52.052;8.354;2023-04-19T00:12:22;11.30;99.90
16955;DHT22;8594;52.052;8.354;2023-04-19T00:14:49;11.20;99.90
16955;DHT22;8594;52.052;8.354;2023-04-19T00:17:16;11.30;99.90
16955;DHT22;8594;52.052;8.354;2023-04-19T00:19:44;11.40;99.90
16955;DHT22;8594;52.052;8.354;2023-04-19T00:22:11;11.40;99.90
16955;DHT22;8594;52.052;8.354;2023-04-19T00:24:39;11.30;99.90
16955;DHT22;8594;52.052;8.354;2023-04-19T00:27:06;11.20;99.90
16955;DHT22;8594;52.052;8.354;2023-04-19T00:29:32;11.10;99.90
16955;DHT22;8594;52.052;8.354;2023-04-19T00:31:59;11.00;99.90
16955;DHT22;8594;52.052;8.354;2023-04-19T00:34:26;11.00;99.90
16955;DHT22;8594;52.052;8.354;2023-04-19T00:36:53;11.00;99.90
16955;DHT22;8594;52.052;8.354;2023-04-19T00:39:19;11.00;99.90
16955;DHT22;8594;52.052;8.354;2023-04-19T00:41:47;10.90;99.90
16955;DHT22;8594;52.052;8.354;2023-04-19T00:44:14;10.80;99.90
16955;DHT22;8594;52.052;8.354;2023-04-19T00:46:41;10.70;99.90
16955;DHT22;8594;52.052;8.354;2023-04-19T00:49:09;10.60;99.90
16955;DHT22;8594;52.052;8.354;2023-04-19T00:51:37;10.60;99.90
16955;DHT22;8594;52.052;8.354;2023-04-19T00:54:04;10.60;99.90
16955;DHT22;8594;52.052;8.354;2023-04-19T00:56:33;10.70;99.90
16955;DHT22;8594;52.052;8.354;2023-04-19T00:59:02;10.80;99.90
16955;DHT22;8594;52.052;8.354;2023-04-19T01:01:29;10.80;99.90
16955;DHT22;8594;52.052;8.354;2023-04-19T01:03:55;10.80;99.90
16955;DHT22;8594;52.052;8.354;2023-04-19T01:06:23;10.90;99.90
16955;DHT22;8594;52.052;8.354;2023-04-19T01:08:49;10.80;99.90
16955;DHT22;8594;52.052;8.354;2023-04-19T01:11:16;10.80;99.90
16955;DHT22;8594;52.052;8.354;2023-04-19T01:13:43;10.80;99.90
16955;DHT22;8594;52.052;8.354;2023-04-19T01:16:11;10.80;99.90
16955;DHT22;8594;52.052;8.354;2023-04-19T01:18:38;10.70;99.90
16955;DHT22;8594;52.052;8.354;2023-04-19T01:21:06;10.70;99.90
16955;DHT22;8594;52.052;8.354;2023-04-19T01:23:35;10.60;99.90
16955;DHT22;8594;52.052;8.354;2023-04-19T01:26:03;10.50;99.90
16955;DHT22;8594;52.052;8.354;2023-04-19T01:28:30;10.50;99.90
16955;DHT22;8594;52.052;8.354;2023-04-19T01:30:57;10.70;99.90
16955;DHT22;8594;52.052;8.354;2023-04-19T01:33:24;10.60;99.90
16955;DHT22;8594;52.052;8.354;2023-04-19T01:35:51;10.70;99.90
16955;DHT22;8594;52.052;8.354;2023-04-19T01:38:18;10.70;99.90
16955;DHT22;8594;52.052;8.354;2023-04-19T01:40:46;10.80;99.90
16955;DHT22;8594;52.052;8.354;2023-04-19T01:43:15;10.70;99.90
16955;DHT22;8594;52.052;8.354;2023-04-19T01:45:42;10.80;99.90
16955;DHT22;8594;52.052;8.354;2023-04-19T01:48:09;10.90;99.90
16955;DHT22;8594;52.052;8.354;2023-04-19T01:50:36;10.80;99.90
16955;DHT22;8594;52.052;8.354;2023-04-19T01:53:03;10.80;99.90
16955;DHT22;8594;52.052;8.354;2023-04-19T01:55:29;10.80;99.90
16955;DHT22;8594;52.052;8.354;2023-04-19T01:57:58;10.60;99.90
16955;DHT22;8594;52.052;8.354;2023-04-19T02:00:24;10.40;99.90
16955;DHT22;8594;52.052;8.354;2023-04-19T02:02:51;10.30;99.90
16955;DHT22;8594;52.052;8.354;2023-04-19T02:05:18;10.20;99.90
16955;DHT22;8594;52.052;8.354;2023-04-19T02:07:45;10.20;99.90
16955;DHT22;8594;52.052;8.354;2023-04-19T02:10:12;10.40;99.90
16955;DHT22;8594;52.052;8.354;2023-04-19T02:12:39;10.40;99.90
16955;DHT22;8594;52.052;8.354;2023-04-19T02:15:09;10.40;99.90
16955;DHT22;8594;52.052;8.354;2023-04-19T02:17:36;10.40;99.90
16955;DHT22;8594;52.052;8.354;2023-04-19T02:20:04;10.40;99.90
16955;DHT22;8594;52.052;8.354;2023-04-19T02:22:32;10.30;99.90
16955;DHT22;8594;52.052;8.354;2023-04-19T02:24:59;10.20;99.90
16955;DHT22;8594;52.052;8.354;2023-04-19T02:27:26;10.20;99.90
16955;DHT22;8594;52.052;8.354;2023-04-19T02:29:54;10.30;99.90
16955;DHT22;8594;52.052;8.354;2023-04-19T02:32:22;10.30;99.90
16955;DHT22;8594;52.052;8.354;2023-04-19T02:34:49;10.30;99.90
16955;DHT22;8594;52.052;8.354;2023-04-19T02:37:16;10.20;99.90
16955;DHT22;8594;52.052;8.354;2023-04-19T02:39:43;10.10;99.90
16955;DHT22;8594;52.052;8.354;2023-04-19T02:42:10;10.10;99.90
16955;DHT22;8594;52.052;8.354;2023-04-19T02:44:37;10.00;99.90
16955;DHT22;8594;52.052;8.354;2023-04-19T02:47:04;9.90;99.90
16955;DHT22;8594;52.052;8.354;2023-04-19T02:49:32;9.80;99.90
16955;DHT22;8594;52.052;8.354;2023-04-19T02:52:01;9.50;99.90
16955;DHT22;8594;52.052;8.354;2023-04-19T02:54:28;9.50;99.90
16955;DHT22;8594;52.052;8.354;2023-04-19T02:56:54;9.50;99.90
16955;DHT22;8594;52.052;8.354;2023-04-19T02:59:21;9.60;99.90
16955;DHT22;8594;52.052;8.354;2023-04-19T03:01:48;9.60;99.90
16955;DHT22;8594;52.052;8.354;2023-04-19T03:04:15;9.60;99.90
16955;DHT22;8594;52.052;8.354;2023-04-19T03:06:43;9.50;99.90
16955;DHT22;8594;52.052;8.354;2023-04-19T03:09:10;9.30;99.90
16955;DHT22;8594;52.052;8.354;2023-04-19T03:11:37;9.30;99.90
16955;DHT22;8594;52.052;8.354;2023-04-19T03:14:04;9.30;99.90
16955;DHT22;8594;52.052;8.354;2023-04-19T03:16:30;9.40;99.90
16955;DHT22;8594;52.052;8.354;2023-04-19T03:18:58;9.50;99.90
16955;DHT22;8594;52.052;8.354;2023-04-19T03:21:24;9.40;99.90
16955;DHT22;8594;52.052;8.354;2023-04-19T03:23:54;9.50;99.90
16955;DHT22;8594;52.052;8.354;2023-04-19T03:26:21;9.70;99.90
16955;DHT22;8594;52.052;8.354;2023-04-19T03:28:48;9.70;99.90
16955;DHT22;8594;52.052;8.354;2023-04-19T03:31:15;9.70;99.90
16955;DHT22;8594;52.052;8.354;2023-04-19T03:33:42;9.50;99.90
16955;DHT22;8594;52.052;8.354;2023-04-19T03:36:09;9.50;99.90
16955;DHT22;8594;52.052;8.354;2023-04-19T03:38:35;9.60;99.90
16955;DHT22;8594;52.052;8.354;2023-04-19T03:41:04;9.60;99.90
16955;DHT22;8594;52.052;8.354;2023-04-19T03:43:31;9.50;99.90
16955;DHT22;8594;52.052;8.354;2023-04-19T03:45:57;9.50;99.90
16955;DHT22;8594;52.052;8.354;2023-04-19T03:48:24;9.20;99.90
16955;DHT22;8594;52.052;8.354;2023-04-19T03:50:52;9.20;99.90
16955;DHT22;8594;52.052;8.354;2023-04-19T03:53:19;9.10;99.90
16955;DHT22;8594;52.052;8.354;2023-04-19T03:55:45;9.00;99.90
16955;DHT22;8594;52.052;8.354;2023-04-19T03:58:13;9.10;99.90
16955;DHT22;8594;52.052;8.354;2023-04-19T04:00:40;8.90;99.90
16955;DHT22;8594;52.052;8.354;2023-04-19T04:03:07;8.60;99.90
16955;DHT22;8594;52.052;8.354;2023-04-19T04:05:34;8.70;99.90
16955;DHT22;8594;52.052;8.354;2023-04-19T04:08:01;8.80;99.90
16955;DHT22;8594;52.052;8.354;2023-04-19T04:10:28;8.80;99.90
16955;DHT22;8594;52.052;8.354;2023-04-19T04:12:55;8.70;99.90
16955;DHT22;8594;52.052;8.354;2023-04-19T04:15:23;8.80;99.90
16955;DHT22;8594;52.052;8.354;2023-04-19T04:17:50;8.50;99.90
16955;DHT22;8594;52.052;8.354;2023-04-19T04:20:17;8.40;99.90
16955;DHT22;8594;52.052;8.354;2023-04-19T04:22:44;8.50;99.90
16955;DHT22;8594;52.052;8.354;2023-04-19T04:25:11;8.60;99.90
16955;DHT22;8594;52.052;8.354;2023-04-19T04:27:40;8.70;99.90
16955;DHT22;8594;52.052;8.354;2023-04-19T04:30:09;8.40;99.90
16955;DHT22;8594;52.052;8.354;2023-04-19T04:32:37;8.20;99.90
16955;DHT22;8594;52.052;8.354;2023-04-19T04:35:06;8.40;99.90
16955;DHT22;8594;52.052;8.354;2023-04-19T04:37:35;8.50;99.90
16955;DHT22;8594;52.052;8.354;2023-04-19T04:40:02;8.40;99.90
16955;DHT22;8594;52.052;8.354;2023-04-19T04:42:30;8.10;99.90
16955;DHT22;8594;52.052;8.354;2023-04-19T04:44:57;7.90;99.90
16955;DHT22;8594;52.052;8.354;2023-04-19T04:47:29;7.80;99.90
16955;DHT22;8594;52.052;8.354;2023-04-19T04:49:58;7.80;99.90
16955;DHT22;8594;52.052;8.354;2023-04-19T04:52:25;7.50;99.90
16955;DHT22;8594;52.052;8.354;2023-04-19T04:54:52;7.40;99.90
16955;DHT22;8594;52.052;8.354;2023-04-19T04:57:19;7.50;99.90
16955;DHT22;8594;52.052;8.354;2023-04-19T04:59:45;7.50;99.90
16955;DHT22;8594;52.052;8.354;2023-04-19T05:02:12;7.40;99.90
16955;DHT22;8594;52.052;8.354;2023-04-19T05:04:39;7.50;99.90
16955;DHT22;8594;52.052;8.354;2023-04-19T05:07:08;7.40;99.90
16955;DHT22;8594;52.052;8.354;2023-04-19T05:09:35;7.30;99.90
16955;DHT22;8594;52.052;8.354;2023-04-19T05:12:02;7.30;99.90
16955;DHT22;8594;52.052;8.354;2023-04-19T05:14:29;7.30;99.90
16955;DHT22;8594;52.052;8.354;2023-04-19T05:16:56;7.20;99.90
16955;DHT22;8594;52.052;8.354;2023-04-19T05:19:22;7.10;99.90
16955;DHT22;8594;52.052;8.354;2023-04-19T05:21:49;7.30;99.90
16955;DHT22;8594;52.052;8.354;2023-04-19T05:24:18;7.20;99.90
16955;DHT22;8594;52.052;8.354;2023-04-19T05:26:45;7.30;99.90
16955;DHT22;8594;52.052;8.354;2023-04-19T05:29:11;7.30;99.90
16955;DHT22;8594;52.052;8.354;2023-04-19T05:31:38;7.40;99.90
16955;DHT22;8594;52.052;8.354;2023-04-19T05:34:05;7.50;99.90
16955;DHT22;8594;52.052;8.354;2023-04-19T05:36:32;7.50;99.90
16955;DHT22;8594;52.052;8.354;2023-04-19T05:38:58;7.50;99.90
16955;DHT22;8594;52.052;8.354;2023-04-19T05:41:27;7.60;99.90
16955;DHT22;8594;52.052;8.354;2023-04-19T05:43:53;7.60;99.90
16955;DHT22;8594;52.052;8.354;2023-04-19T05:46:23;7.70;99.90
16955;DHT22;8594;52.052;8.354;2023-04-19T05:48:50;7.80;99.90
16955;DHT22;8594;52.052;8.354;2023-04-19T05:51:17;7.80;99.90
16955;DHT22;8594;52.052;8.354;2023-04-19T05:53:44;7.80;99.90
16955;DHT22;8594;52.052;8.354;2023-04-19T05:56:11;8.10;99.90
16955;DHT22;8594;52.052;8.354;2023-04-19T05:58:39;8.10;99.90
16955;DHT22;8594;52.052;8.354;2023-04-19T06:01:06;8.40;99.90
16955;DHT22;8594;52.052;8.354;2023-04-19T06:03:32;8.30;99.90
16955;DHT22;8594;52.052;8.354;2023-04-19T06:05:59;8.50;99.90
16955;DHT22;8594;52.052;8.354;2023-04-19T06:08:26;8.40;99.90
16955;DHT22;8594;52.052;8.354;2023-04-19T06:10:53;8.60;99.90
16955;DHT22;8594;52.052;8.354;2023-04-19T06:13:20;8.90;99.90
16955;DHT22;8594;52.052;8.354;2023-04-19T06:15:49;9.30;99.90
16955;DHT22;8594;52.052;8.354;2023-04-19T06:18:15;9.40;99.90
16955;DHT22;8594;52.052;8.354;2023-04-19T06:20:42;9.50;99.90
16955;DHT22;8594;52.052;8.354;2023-04-19T06:23:09;9.60;99.90
16955;DHT22;8594;52.052;8.354;2023-04-19T06:25:37;10.00;99.90
16955;DHT22;8594;52.052;8.354;2023-04-19T06:28:04;10.00;99.90
16955;DHT22;8594;52.052;8.354;2023-04-19T06:30:31;10.10;99.90
16955;DHT22;8594;52.052;8.354;2023-04-19T06:32:59;10.30;99.90
16955;DHT22;8594;52.052;8.354;2023-04-19T06:35:26;10.40;99.90
16955;DHT22;8594;52.052;8.354;2023-04-19T06:37:52;11.00;99.90
16955;DHT22;8594;52.052;8.354;2023-04-19T06:40:19;11.10;99.90
16955;DHT22;8594;52.052;8.354;2023-04-19T06:42:46;11.10;99.90
16955;DHT22;8594;52.052;8.354;2023-04-19T06:45:13;11.40;99.90
16955;DHT22;8594;52.052;8.354;2023-04-19T06:47:40;11.30;99.90
16955;DHT22;8594;52.052;8.354;2023-04-19T06:50:09;11.10;99.90
16955;DHT22;8594;52.052;8.354;2023-04-19T06:52:37;11.30;99.90
16955;DHT22;8594;52.052;8.354;2023-04-19T06:55:05;11.10;99.90
16955;DHT22;8594;52.052;8.354;2023-04-19T06:57:32;10.90;99.90
16955;DHT22;8594;52.052;8.354;2023-04-19T06:59:59;10.70;99.90
16955;DHT22;8594;52.052;8.354;2023-04-19T07:02:26;10.70;99.90
16955;DHT22;8594;52.052;8.354;2023-04-19T07:04:52;10.50;99.90
16955;DHT22;8594;52.052;8.354;2023-04-19T07:07:20;10.40;99.90
16955;DHT22;8594;52.052;8.354;2023-04-19T07:09:47;10.50;99.90
16955;DHT22;8594;52.052;8.354;2023-04-19T07:12:14;10.50;99.90
16955;DHT22;8594;52.052;8.354;2023-04-19T07:14:41;10.50;99.90
16955;DHT22;8594;52.052;8.354;2023-04-19T07:17:07;10.50;99.90
16955;DHT22;8594;52.052;8.354;2023-04-19T07:19:34;10.60;99.90
16955;DHT22;8594;52.052;8.354;2023-04-19T07:22:01;10.80;99.90
16955;DHT22;8594;52.052;8.354;2023-04-19T07:24:29;11.10;99.90
16955;DHT22;8594;52.052;8.354;2023-04-19T07:26:56;11.20;99.90
16955;DHT22;8594;52.052;8.354;2023-04-19T07:29:23;11.40;99.90
16955;DHT22;8594;52.052;8.354;2023-04-19T07:31:50;11.70;99.90
16955;DHT22;8594;52.052;8.354;2023-04-19T07:34:19;11.60;99.90
16955;DHT22;8594;52.052;8.354;2023-04-19T07:36:46;11.40;99.90
16955;DHT22;8594;52.052;8.354;2023-04-19T07:39:13;11.20;99.90
16955;DHT22;8594;52.052;8.354;2023-04-19T07:41:43;11.10;99.90
16955;DHT22;8594;52.052;8.354;2023-04-19T07:44:10;10.60;99.90
16955;DHT22;8594;52.052;8.354;2023-04-19T07:46:38;10.40;99.90
16955;DHT22;8594;52.052;8.354;2023-04-19T07:49:05;10.30;99.90
16955;DHT22;8594;52.052;8.354;2023-04-19T07:51:31;10.60;99.90
16955;DHT22;8594;52.052;8.354;2023-04-19T07:53:58;10.80;99.90
16955;DHT22;8594;52.052;8.354;2023-04-19T07:56:25;10.90;99.90
16955;DHT22;8594;52.052;8.354;2023-04-19T07:58:53;10.90;99.90
16955;DHT22;8594;52.052;8.354;2023-04-19T08:01:20;11.10;99.90
16955;DHT22;8594;52.052;8.354;2023-04-19T08:03:46;11.20;99.90
16955;DHT22;8594;52.052;8.354;2023-04-19T08:06:13;11.30;99.90
16955;DHT22;8594;52.052;8.354;2023-04-19T08:08:40;11.40;99.90
16955;DHT22;8594;52.052;8.354;2023-04-19T08:11:07;11.40;99.90
16955;DHT22;8594;52.052;8.354;2023-04-19T08:13:33;11.80;99.90
16955;DHT22;8594;52.052;8.354;2023-04-19T08:16:02;11.90;99.90
16955;DHT22;8594;52.052;8.354;2023-04-19T08:18:29;12.20;99.90
16955;DHT22;8594;52.052;8.354;2023-04-19T08:20:56;12.20;99.90
16955;DHT22;8594;52.052;8.354;2023-04-19T08:23:23;12.00;99.90
16955;DHT22;8594;52.052;8.354;2023-04-19T08:25:50;11.40;99.90
16955;DHT22;8594;52.052;8.354;2023-04-19T08:28:17;11.40;99.90
16955;DHT22;8594;52.052;8.354;2023-04-19T08:30:44;11.80;99.90
16955;DHT22;8594;52.052;8.354;2023-04-19T08:33:12;12.20;99.90
16955;DHT22;8594;52.052;8.354;2023-04-19T08:35:40;12.50;99.90
16955;DHT22;8594;52.052;8.354;2023-04-19T08:38:07;13.30;99.90
16955;DHT22;8594;52.052;8.354;2023-04-19T08:40:34;13.80;99.90
16955;DHT22;8594;52.052;8.354;2023-04-19T08:43:06;13.60;99.90
16955;DHT22;8594;52.052;8.354;2023-04-19T08:45:34;13.50;99.90
16955;DHT22;8594;52.052;8.354;2023-04-19T08:48:04;13.30;99.90
16955;DHT22;8594;52.052;8.354;2023-04-19T08:50:36;13.60;99.90
16955;DHT22;8594;52.052;8.354;2023-04-19T08:53:06;14.00;99.90
16955;DHT22;8594;52.052;8.354;2023-04-19T08:55:36;14.20;99.90
16955;DHT22;8594;52.052;8.354;2023-04-19T08:58:04;14.30;99.90
16955;DHT22;8594;52.052;8.354;2023-04-19T09:00:32;14.00;98.90
16955;DHT22;8594;52.052;8.354;2023-04-19T09:02:59;14.20;99.90
16955;DHT22;8594;52.052;8.354;2023-04-19T09:05:26;14.40;99.50
16955;DHT22;8594;52.052;8.354;2023-04-19T09:08:20;14.50;98.50
16955;DHT22;8594;52.052;8.354;2023-04-19T09:10:52;14.70;99.00
16955;DHT22;8594;52.052;8.354;2023-04-19T09:13:20;15.10;97.90
16955;DHT22;8594;52.052;8.354;2023-04-19T09:15:47;15.20;97.70
16955;DHT22;8594;52.052;8.354;2023-04-19T09:18:14;15.40;97.70
16955;DHT22;8594;52.052;8.354;2023-04-19T09:20:42;16.10;97.60
16955;DHT22;8594;52.052;8.354;2023-04-19T09:23:12;16.20;96.00
16955;DHT22;8594;52.052;8.354;2023-04-19T09:25:50;16.30;95.10
16955;DHT22;8594;52.052;8.354;2023-04-19T09:28:57;15.90;95.30
16955;DHT22;8594;52.052;8.354;2023-04-19T09:31:27;15.50;95.90
16955;DHT22;8594;52.052;8.354;2023-04-19T09:33:54;15.80;95.30
16955;DHT22;8594;52.052;8.354;2023-04-19T09:36:29;15.70;95.30
16955;DHT22;8594;52.052;8.354;2023-04-19T09:38:58;15.60;95.10
16955;DHT22;8594;52.052;8.354;2023-04-19T09:41:25;15.90;95.60
16955;DHT22;8594;52.052;8.354;2023-04-19T09:43:52;15.90;94.60
16955;DHT22;8594;52.052;8.354;2023-04-19T09:46:30;15.60;94.70
16955;DHT22;8594;52.052;8.354;2023-04-19T09:49:18;15.50;95.20
16955;DHT22;8594;52.052;8.354;2023-04-19T09:51:49;15.90;94.50
16955;DHT22;8594;52.052;8.354;2023-04-19T09:54:19;15.70;94.00
16955;DHT22;8594;52.052;8.354;2023-04-19T09:56:47;15.70;94.80
16955;DHT22;8594;52.052;8.354;2023-04-19T09:59:14;15.90;94.60
16955;DHT22;8594;52.052;8.354;2023-04-19T10:01:44;16.10;92.50
16955;DHT22;8594;52.052;8.354;2023-04-19T10:04:20;15.80;91.60
16955;DHT22;8594;52.052;8.354;2023-04-19T10:06:49;15.40;90.90
16955;DHT22;8594;52.052;8.354;2023-04-19T10:09:19;15.20;90.80
16955;DHT22;8594;52.052;8.354;2023-04-19T10:11:48;15.40;90.70
16955;DHT22;8594;52.052;8.354;2023-04-19T10:14:21;15.00;90.30
16955;DHT22;8594;52.052;8.354;2023-04-19T10:16:50;15.10;91.70
16955;DHT22;8594;52.052;8.354;2023-04-19T10:19:18;15.40;90.90
16955;DHT22;8594;52.052;8.354;2023-04-19T10:21:48;15.90;90.30
16955;DHT22;8594;52.052;8.354;2023-04-19T10:24:17;16.10;89.40
16955;DHT22;8594;52.052;8.354;2023-04-19T10:27:06;16.00;88.70
16955;DHT22;8594;52.052;8.354;2023-04-19T10:29:57;16.40;88.20
16955;DHT22;8594;52.052;8.354;2023-04-19T10:32:27;16.60;87.40
16955;DHT22;8594;52.052;8.354;2023-04-19T10:34:54;16.20;86.60
16955;DHT22;8594;52.052;8.354;2023-04-19T10:37:26;16.20;85.90
16955;DHT22;8594;52.052;8.354;2023-04-19T10:39:54;15.60;85.60
16955;DHT22;8594;52.052;8.354;2023-04-19T10:42:21;15.50;84.20
16955;DHT22;8594;52.052;8.354;2023-04-19T10:47:58;15.90;85.00
16955;DHT22;8594;52.052;8.354;2023-04-19T10:50:27;16.20;85.00
16955;DHT22;8594;52.052;8.354;2023-04-19T10:52:54;15.70;84.70
16955;DHT22;8594;52.052;8.354;2023-04-19T10:55:22;15.50;85.20
16955;DHT22;8594;52.052;8.354;2023-04-19T10:58:03;15.60;86.20
16955;DHT22;8594;52.052;8.354;2023-04-19T11:00:31;15.70;85.40
16955;DHT22;8594;52.052;8.354;2023-04-19T11:06:18;15.70;83.10
16955;DHT22;8594;52.052;8.354;2023-04-19T11:08:47;16.00;81.20
16955;DHT22;8594;52.052;8.354;2023-04-19T11:11:15;16.20;81.50
16955;DHT22;8594;52.052;8.354;2023-04-19T11:13:42;16.70;77.80
16955;DHT22;8594;52.052;8.354;2023-04-19T11:16:09;16.70;76.80
16955;DHT22;8594;52.052;8.354;2023-04-19T11:18:36;16.90;77.30
16955;DHT22;8594;52.052;8.354;2023-04-19T11:21:04;16.60;77.20
16955;DHT22;8594;52.052;8.354;2023-04-19T11:23:31;16.50;77.60
16955;DHT22;8594;52.052;8.354;2023-04-19T11:25:58;16.50;77.60
16955;DHT22;8594;52.052;8.354;2023-04-19T11:28:26;16.50;78.50
16955;DHT22;8594;52.052;8.354;2023-04-19T11:30:53;16.60;77.90
16955;DHT22;8594;52.052;8.354;2023-04-19T11:33:22;16.30;78.50
16955;DHT22;8594;52.052;8.354;2023-04-19T11:35:50;16.60;77.50
16955;DHT22;8594;52.052;8.354;2023-04-19T11:38:17;16.60;77.50
16955;DHT22;8594;52.052;8.354;2023-04-19T11:40:44;16.80;76.10
16955;DHT22;8594;52.052;8.354;2023-04-19T11:43:11;16.70;76.80
16955;DHT22;8594;52.052;8.354;2023-04-19T11:45:39;16.70;76.80
16955;DHT22;8594;52.052;8.354;2023-04-19T11:48:12;16.60;76.60
16955;DHT22;8594;52.052;8.354;2023-04-19T11:50:41;16.80;77.30
16955;DHT22;8594;52.052;8.354;2023-04-19T11:53:10;16.80;75.90
16955;DHT22;8594;52.052;8.354;2023-04-19T11:55:41;15.80;78.20
16955;DHT22;8594;52.052;8.354;2023-04-19T11:58:25;15.60;79.20
16955;DHT22;8594;52.052;8.354;2023-04-19T12:00:56;15.30;80.60
16955;DHT22;8594;52.052;8.354;2023-04-19T12:03:28;15.40;79.70
16955;DHT22;8594;52.052;8.354;2023-04-19T12:05:56;15.30;80.60
16955;DHT22;8594;52.052;8.354;2023-04-19T12:08:31;15.50;80.20
16955;DHT22;8594;52.052;8.354;2023-04-19T12:10:59;15.70;80.70
16955;DHT22;8594;52.052;8.354;2023-04-19T12:13:28;15.90;81.00
16955;DHT22;8594;52.052;8.354;2023-04-19T12:15:57;16.70;81.20
16955;DHT22;8594;52.052;8.354;2023-04-19T12:18:24;16.90;81.80
16955;DHT22;8594;52.052;8.354;2023-04-19T12:20:52;16.80;79.30
16955;DHT22;8594;52.052;8.354;2023-04-19T12:23:19;16.70;79.30
16955;DHT22;8594;52.052;8.354;2023-04-19T12:25:47;16.60;80.50
16955;DHT22;8594;52.052;8.354;2023-04-19T12:28:15;16.70;80.30
16955;DHT22;8594;52.052;8.354;2023-04-19T12:30:42;17.00;79.30
16955;DHT22;8594;52.052;8.354;2023-04-19T12:33:10;16.30;80.10
16955;DHT22;8594;52.052;8.354;2023-04-19T12:35:37;16.40;79.30
16955;DHT22;8594;52.052;8.354;2023-04-19T12:38:04;16.50;78.20
16955;DHT22;8594;52.052;8.354;2023-04-19T12:40:31;16.30;79.10
16955;DHT22;8594;52.052;8.354;2023-04-19T12:42:58;16.30;78.50
16955;DHT22;8594;52.052;8.354;2023-04-19T12:45:26;16.10;80.00
16955;DHT22;8594;52.052;8.354;2023-04-19T12:47:53;16.50;79.00
16955;DHT22;8594;52.052;8.354;2023-04-19T12:50:21;16.90;75.50
16955;DHT22;8594;52.052;8.354;2023-04-19T12:52:48;16.80;75.40
16955;DHT22;8594;52.052;8.354;2023-04-19T12:55:16;16.70;76.30
16955;DHT22;8594;52.052;8.354;2023-04-19T12:57:42;17.20;77.70
16955;DHT22;8594;52.052;8.354;2023-04-19T13:00:11;17.20;77.00
16955;DHT22;8594;52.052;8.354;2023-04-19T13:02:38;17.50;75.00
16955;DHT22;8594;52.052;8.354;2023-04-19T13:05:06;17.50;72.50
16955;DHT22;8594;52.052;8.354;2023-04-19T13:07:34;17.10;71.90
16955;DHT22;8594;52.052;8.354;2023-04-19T13:10:01;17.60;74.20
16955;DHT22;8594;52.052;8.354;2023-04-19T13:12:28;17.60;71.40
16955;DHT22;8594;52.052;8.354;2023-04-19T13:14:55;17.60;71.20
16955;DHT22;8594;52.052;8.354;2023-04-19T13:17:22;17.90;71.10
16955;DHT22;8594;52.052;8.354;2023-04-19T13:19:49;17.90;69.60
16955;DHT22;8594;52.052;8.354;2023-04-19T13:22:15;17.60;67.90
16955;DHT22;8594;52.052;8.354;2023-04-19T13:24:44;17.10;67.80
16955;DHT22;8594;52.052;8.354;2023-04-19T13:27:11;16.90;68.70
16955;DHT22;8594;52.052;8.354;2023-04-19T13:29:38;17.20;72.20
16955;DHT22;8594;52.052;8.354;2023-04-19T13:32:05;17.30;69.00
16955;DHT22;8594;52.052;8.354;2023-04-19T13:34:36;17.20;68.50
16955;DHT22;8594;52.052;8.354;2023-04-19T13:37:03;17.20;68.50
16955;DHT22;8594;52.052;8.354;2023-04-19T13:39:30;17.30;69.80
16955;DHT22;8594;52.052;8.354;2023-04-19T13:41:58;17.20;68.20
16955;DHT22;8594;52.052;8.354;2023-04-19T13:44:26;16.90;68.80
16955;DHT22;8594;52.052;8.354;2023-04-19T13:46:53;16.50;69.50
16955;DHT22;8594;52.052;8.354;2023-04-19T13:49:19;16.60;70.30
16955;DHT22;8594;52.052;8.354;2023-04-19T13:51:46;16.50;70.50
16955;DHT22;8594;52.052;8.354;2023-04-19T13:54:13;16.70;71.40
16955;DHT22;8594;52.052;8.354;2023-04-19T13:56:41;16.90;70.80
16955;DHT22;8594;52.052;8.354;2023-04-19T13:59:10;16.90;69.80
16955;DHT22;8594;52.052;8.354;2023-04-19T14:01:36;16.80;71.90
16955;DHT22;8594;52.052;8.354;2023-04-19T14:04:03;17.10;72.20
16955;DHT22;8594;52.052;8.354;2023-04-19T14:06:30;17.20;71.20
16955;DHT22;8594;52.052;8.354;2023-04-19T14:08:58;17.00;71.50
16955;DHT22;8594;52.052;8.354;2023-04-19T14:11:27;16.90;71.10
16955;DHT22;8594;52.052;8.354;2023-04-19T14:13:54;16.60;69.60
16955;DHT22;8594;52.052;8.354;2023-04-19T14:16:22;16.20;69.90
16955;DHT22;8594;52.052;8.354;2023-04-19T14:18:49;16.30;69.60
16955;DHT22;8594;52.052;8.354;2023-04-19T14:21:16;16.40;70.20
16955;DHT22;8594;52.052;8.354;2023-04-19T14:23:43;16.40;69.30
16955;DHT22;8594;52.052;8.354;2023-04-19T14:26:10;16.70;68.70
16955;DHT22;8594;52.052;8.354;2023-04-19T14:28:36;16.50;68.60
16955;DHT22;8594;52.052;8.354;2023-04-19T14:31:03;16.50;69.00
16955;DHT22;8594;52.052;8.354;2023-04-19T14:33:32;16.20;69.20
16955;DHT22;8594;52.052;8.354;2023-04-19T14:35:59;16.20;69.90
16955;DHT22;8594;52.052;8.354;2023-04-19T14:38:26;16.20;68.10
16955;DHT22;8594;52.052;8.354;2023-04-19T14:40:53;16.10;68.20
16955;DHT22;8594;52.052;8.354;2023-04-19T14:43:20;16.20;68.40
16955;DHT22;8594;52.052;8.354;2023-04-19T14:45:47;16.10;69.10
16955;DHT22;8594;52.052;8.354;2023-04-19T14:48:14;16.10;69.80
16955;DHT22;8594;52.052;8.354;2023-04-19T14:50:43;15.90;69.20
16955;DHT22;8594;52.052;8.354;2023-04-19T14:53:10;16.00;70.20
16955;DHT22;8594;52.052;8.354;2023-04-19T14:55:37;15.70;70.00
16955;DHT22;8594;52.052;8.354;2023-04-19T14:58:04;15.60;70.60
16955;DHT22;8594;52.052;8.354;2023-04-19T15:00:31;15.70;70.70
16955;DHT22;8594;52.052;8.354;2023-04-19T15:02:58;15.50;72.20
16955;DHT22;8594;52.052;8.354;2023-04-19T15:05:26;15.70;71.20
16955;DHT22;8594;52.052;8.354;2023-04-19T15:07:55;15.80;72.10
16955;DHT22;8594;52.052;8.354;2023-04-19T15:10:21;15.80;70.20
16955;DHT22;8594;52.052;8.354;2023-04-19T15:12:48;15.90;70.80
16955;DHT22;8594;52.052;8.354;2023-04-19T15:15:15;15.90;70.40
16955;DHT22;8594;52.052;8.354;2023-04-19T15:17:42;15.60;69.70
16955;DHT22;8594;52.052;8.354;2023-04-19T15:20:09;15.50;70.20
16955;DHT22;8594;52.052;8.354;2023-04-19T15:22:36;15.20;71.10
16955;DHT22;8594;52.052;8.354;2023-04-19T15:25:05;14.90;71.10
16955;DHT22;8594;52.052;8.354;2023-04-19T15:27:32;14.90;71.00
16955;DHT22;8594;52.052;8.354;2023-04-19T15:29:59;15.30;71.80
16955;DHT22;8594;52.052;8.354;2023-04-19T15:32:26;15.50;71.70
16955;DHT22;8594;52.052;8.354;2023-04-19T15:34:55;15.50;71.60
16955;DHT22;8594;52.052;8.354;2023-04-19T15:37:22;15.40;71.80
16955;DHT22;8594;52.052;8.354;2023-04-19T15:39:48;15.20;71.90
16955;DHT22;8594;52.052;8.354;2023-04-19T15:42:16;15.10;71.30
16955;DHT22;8594;52.052;8.354;2023-04-19T15:44:43;15.10;71.90
16955;DHT22;8594;52.052;8.354;2023-04-19T15:47:10;15.20;71.90
16955;DHT22;8594;52.052;8.354;2023-04-19T15:49:37;15.00;72.80
16955;DHT22;8594;52.052;8.354;2023-04-19T15:52:04;14.90;73.90
16955;DHT22;8594;52.052;8.354;2023-04-19T15:54:31;14.70;74.20
16955;DHT22;8594;52.052;8.354;2023-04-19T15:56:58;14.70;74.50
16955;DHT22;8594;52.052;8.354;2023-04-19T15:59:27;14.60;74.20